Ashcamp, Kentucky
Current Conditions -  °F | °C
As of 12:55 PM on Saturday 22 Nov 2014 (Local Time) from KLNP Reporting Station
Scattered Clouds Scattered Clouds  
Wind Chill: 55°   Ceiling: Unl
Heat Index: 55°   Visibility: 10mi
Dew Point: 18°   Wind: 7mph
Humidity: 23%   Direction: 200°SSW
Pressure: 30.33"   Gusts: NA
Location:  37.27°N, 82.43°W
Report Text: KLNP 221755Z AUTO 20006KT 10SM SCT085 13/M08 A3033 RMK AO2
Loading
Personal Weather Stations






























Interactive Weather Map New forecast layout! Learn more

10-Day Weather Forecast

Advertisements
Track Severe Weather on mobile